Yao, Japan

5:13 AM JST on November 01, 2014 (GMT +0900)
Tokura-nishi | Change Station
CLOSE
Current Station
Personal Weather Station
Location: Toyonaka, OSAKA
Elevation: 16 ft
Nearby Weather Stations

Elev 16 ft 34.76 °N, 135.45 °E | Updated 16 seconds ago

Light Rain Showers
Light Showers Rain
63.0 °F
Feels Like 63.0 °F
N
0.0
Wind Variable Wind from NNW
Gusts 1.2 mph

Today
High -- | Low -- °F
--% Chance of Precip.
Yesterday
High -- | Low -- °F
Precip. -- in
6:17 AM 5:04 PM
First Quarter, 58% visible
Pressure 29.98 in
Visibility 6.2 miles
Clouds Few 800 ft
Scattered Clouds 4500 ft
Mostly Cloudy 6000 ft
Dew Point 61 °F
Humidity 94%
Rainfall 0.08 in
Snow Depth Not available.
UV 0.0 out of 12
Pollen Not available.
Air Quality Not available.
Flu Activity Not available.
METAR RJOO 312000Z 07008KT 9999 -SHRA FEW008 SCT045 BKN060 17/16 Q1015 RMK 1ST008 3CU045 5SC060 A3000

More Conditions Fewer Conditions

Pressure 29.98 in
Visibility 6.2 miles
Clouds Few 800 ft
Scattered Clouds 4500 ft
Mostly Cloudy 6000 ft
Dew Point 61 °F
Humidity 94%
Rainfall 0.08 in
Snow Depth Not available.
UV 0.0 out of 12
Pollen Not available.
Air Quality Not available.
Flu Activity Not available.
METAR RJOO 312000Z 07008KT 9999 -SHRA FEW008 SCT045 BKN060 17/16 Q1015 RMK 1ST008 3CU045 5SC060 A3000

More Conditions Fewer Conditions

10-Day Weather Forecast

Almanac

Astronomy

Nov. 01, 2014 Rise Set
Actual Time
Civil Twilight
Nautical Twilight
Astronomical Twilight
Moon
Length of Visible Light
Length of Day
Tomorrow will be .
, % of the Moon is Illuminated

Today's Extremes

Country Highs Country Lows

Community

WunderPhotos

Upload Photos

1,766,717 photos uploaded!

WunderBlogs® & News

Nearby

Air Quality

  Air Quality AQ Index Pollutant
Not available.

Snow Depth

Station Depth Elevation

Earthquake Activity

City Distance Mag. Time & Date
Minimum magnitude displayed is 2.5.

Coastal Water Temperatures

Place Temperature

Nearby Weather Stations